createdAt,value
2023-04-16T00:00:30.667Z,95424.50
2023-04-16T00:01:33.550Z,95421.78
2023-04-16T00:02:35.643Z,95433.09
2023-04-16T00:03:38.835Z,95419.06
2023-04-16T00:04:41.277Z,95429.97
2023-04-16T00:05:44.251Z,95429.97
2023-04-16T00:06:46.308Z,95426.47
2023-04-16T00:07:51.637Z,95419.06
2023-04-16T00:08:53.500Z,95428.00
2023-04-16T00:09:56.643Z,95431.91
2023-04-16T00:10:58.501Z,95427.63
2023-04-16T00:12:01.566Z,95421.44
2023-04-16T00:13:03.535Z,95423.25
2023-04-16T00:14:06.703Z,95419.78
2023-04-16T00:15:09.458Z,95422.06
2023-04-16T00:16:12.285Z,95431.03
2023-04-16T00:17:14.165Z,95424.03
2023-04-16T00:18:17.051Z,95427.72
2023-04-16T00:19:18.958Z,95424.63
2023-04-16T00:20:22.223Z,95427.34
2023-04-16T00:21:24.106Z,95428.53
2023-04-16T00:22:26.921Z,95423.66
2023-04-16T00:23:30.493Z,95426.75
2023-04-16T00:24:33.328Z,95426.34
2023-04-16T00:25:35.338Z,95434.53
2023-04-16T00:26:38.192Z,95424.38
2023-04-16T00:27:40.311Z,95429.84
2023-04-16T00:28:43.179Z,95419.69
2023-04-16T00:29:44.996Z,95424.75
2023-04-16T00:30:48.306Z,95425.91
2023-04-16T00:31:50.291Z,95420.47
2023-04-16T00:32:53.238Z,95418.94
2023-04-16T00:33:55.531Z,95422.41
2023-04-16T00:34:58.393Z,95414.66
2023-04-16T00:36:00.249Z,95411.94
2023-04-16T00:37:03.134Z,95416.59
2023-04-16T00:38:05.000Z,95415.13
2023-04-16T00:39:09.574Z,95412.84
2023-04-16T00:40:12.170Z,95417.50
2023-04-16T00:41:15.086Z,95418.69
2023-04-16T00:42:16.952Z,95415.97
2023-04-16T00:43:24.808Z,95412.47
2023-04-16T00:44:26.727Z,95415.22
2023-04-16T00:45:29.958Z,95422.19
2023-04-16T00:46:31.901Z,95416.75
2023-04-16T00:47:35.109Z,95417.50
2023-04-16T00:48:38.552Z,95424.16
2023-04-16T00:49:41.577Z,95426.88
2023-04-16T00:50:43.834Z,95424.16
2023-04-16T00:51:47.392Z,95418.34
2023-04-16T00:52:49.842Z,95430.00
2023-04-16T00:53:53.600Z,95421.06
2023-04-16T00:54:57.348Z,95418.34
2023-04-16T00:56:00.694Z,95424.56
2023-04-16T00:57:03.051Z,95423.78
2023-04-16T00:58:07.008Z,95414.84
2023-04-16T00:59:09.229Z,95425.75
2023-04-16T01:00:14.014Z,95417.97
2023-04-16T01:01:16.292Z,95413.72
2023-04-16T01:02:19.262Z,95415.69
2023-04-16T01:03:21.260Z,95415.69
2023-04-16T01:04:24.745Z,95413.72
2023-04-16T01:05:27.060Z,95417.63
2023-04-16T01:06:29.952Z,95424.63
2023-04-16T01:07:31.966Z,95413.72
2023-04-16T01:08:34.967Z,95421.91
2023-04-16T01:09:37.233Z,95415.69
2023-04-16T01:10:41.435Z,95423.06
2023-04-16T01:11:43.353Z,95427.34
2023-04-16T01:12:46.211Z,95423.88
2023-04-16T01:13:48.188Z,95423.88
2023-04-16T01:14:51.222Z,95431.69
2023-04-16T01:15:53.188Z,95418.47
2023-04-16T01:16:55.998Z,95425.44
2023-04-16T01:17:57.880Z,95421.56
2023-04-16T01:19:00.957Z,95427.00
2023-04-16T01:20:03.259Z,95420.78
2023-04-16T01:21:07.848Z,95421.56
2023-04-16T01:22:09.732Z,95426.25
2023-04-16T01:23:12.597Z,95427.00
2023-04-16T01:24:14.432Z,95428.53
2023-04-16T01:25:17.462Z,95431.25
2023-04-16T01:26:19.727Z,95429.31
2023-04-16T01:27:22.611Z,95428.53
2023-04-16T01:28:24.484Z,95427.75
2023-04-16T01:29:27.621Z,95433.97
2023-04-16T01:30:31.954Z,95426.25
2023-04-16T01:31:43.410Z,95431.69
2023-04-16T01:33:00.377Z,95424.28
2023-04-16T01:34:03.296Z,95428.53
2023-04-16T01:35:05.534Z,95427.75
2023-04-16T01:36:09.881Z,95431.25
2023-04-16T01:37:12.761Z,95432.03
2023-04-16T01:38:15.760Z,95426.16
2023-04-16T01:39:19.407Z,95431.59
2023-04-16T01:40:22.337Z,95426.94
2023-04-16T01:41:24.827Z,95431.59
2023-04-16T01:42:28.194Z,95435.53
2023-04-16T01:43:30.086Z,95432.81
2023-04-16T01:44:32.996Z,95441.00
2023-04-16T01:45:35.903Z,95441.00
2023-04-16T01:46:39.137Z,95437.50
2023-04-16T01:47:41.078Z,95441.75
2023-04-16T01:48:44.217Z,95444.47
2023-04-16T01:49:48.196Z,95434.78
2023-04-16T01:50:51.111Z,95436.31
2023-04-16T01:51:54.308Z,95441.75
2023-04-16T01:52:57.157Z,95442.50
2023-04-16T01:53:59.278Z,95447.19
2023-04-16T01:55:02.296Z,95441.00
2023-04-16T01:56:04.850Z,95447.19
2023-04-16T01:57:07.715Z,95445.69
2023-04-16T01:58:11.041Z,95442.16
2023-04-16T01:59:15.059Z,95438.66
2023-04-16T02:00:17.324Z,95455.78
2023-04-16T02:01:23.269Z,95455.78
2023-04-16T02:02:28.183Z,95444.88
2023-04-16T02:03:32.149Z,95443.34
2023-04-16T02:04:34.156Z,95437.91
2023-04-16T02:05:36.958Z,95445.69
2023-04-16T02:06:38.985Z,95439.44
2023-04-16T02:07:43.148Z,95444.88
2023-04-16T02:08:44.977Z,95446.84
2023-04-16T02:09:51.292Z,95446.09
2023-04-16T02:10:53.299Z,95451.53
2023-04-16T02:11:56.164Z,95444.88
2023-04-16T02:12:59.025Z,95450.34
2023-04-16T02:14:01.031Z,95450.34
2023-04-16T02:15:04.473Z,95449.56
2023-04-16T02:16:07.269Z,95446.84
2023-04-16T02:17:19.844Z,95446.09
2023-04-16T02:18:24.650Z,95443.34
2023-04-16T02:19:27.939Z,95448.03
2023-04-16T02:20:30.151Z,95443.34
2023-04-16T02:21:36.404Z,95449.97
2023-04-16T02:22:38.283Z,95441.03
2023-04-16T02:23:42.807Z,95448.03
2023-04-16T02:24:44.685Z,95441.81
2023-04-16T02:25:48.666Z,95442.59
2023-04-16T02:26:51.046Z,95444.13
2023-04-16T02:27:54.803Z,95437.13
2023-04-16T02:29:06.847Z,95447.25
2023-04-16T02:30:20.764Z,95443.00
2023-04-16T02:31:23.433Z,95443.75
2023-04-16T02:32:26.615Z,95446.47
2023-04-16T02:33:28.700Z,95440.28
2023-04-16T02:34:36.614Z,95445.72
2023-04-16T02:35:40.402Z,95443.75
2023-04-16T02:36:44.459Z,95445.72
2023-04-16T02:37:46.356Z,95439.50
2023-04-16T02:38:50.697Z,95435.59
2023-04-16T02:39:53.273Z,95440.28
2023-04-16T02:40:56.523Z,95438.75
2023-04-16T02:41:59.446Z,95445.72
2023-04-16T02:43:03.156Z,95446.13
2023-04-16T02:44:05.525Z,95440.69
2023-04-16T02:45:09.727Z,95444.19
2023-04-16T02:46:11.864Z,95438.75
2023-04-16T02:47:15.541Z,95442.63
2023-04-16T02:48:17.435Z,95450.81
2023-04-16T02:49:20.287Z,95444.19
2023-04-16T02:50:23.634Z,95444.19
2023-04-16T02:51:27.734Z,95448.09
2023-04-16T02:52:29.639Z,95443.84
2023-04-16T02:53:32.436Z,95451.19
2023-04-16T02:54:35.648Z,95450.41
2023-04-16T02:55:38.798Z,95450.41
2023-04-16T02:56:40.668Z,95455.88
2023-04-16T02:57:43.503Z,95455.13
2023-04-16T02:58:45.630Z,95461.31
2023-04-16T02:59:48.653Z,95458.25
2023-04-16T03:00:50.683Z,95458.25
2023-04-16T03:01:53.670Z,95458.25
2023-04-16T03:02:56.265Z,95459.44
2023-04-16T03:03:59.360Z,95463.69
2023-04-16T03:05:01.382Z,95460.59
2023-04-16T03:06:04.553Z,95460.59
2023-04-16T03:07:06.671Z,95457.88
2023-04-16T03:08:09.713Z,95462.16
2023-04-16T03:09:12.238Z,95460.59
2023-04-16T03:10:16.680Z,95469.56
2023-04-16T03:11:19.753Z,95466.06
2023-04-16T03:12:22.652Z,95469.97
2023-04-16T03:13:24.498Z,95466.84
2023-04-16T03:14:27.295Z,95464.13
2023-04-16T03:15:29.363Z,95464.88
2023-04-16T03:16:32.223Z,95472.31
2023-04-16T03:17:34.163Z,95467.63
2023-04-16T03:18:37.888Z,95471.09
2023-04-16T03:19:39.722Z,95469.13
2023-04-16T03:20:42.477Z,95470.69
2023-04-16T03:21:44.556Z,95467.97
2023-04-16T03:22:48.053Z,95470.69
2023-04-16T03:23:49.914Z,95463.69
2023-04-16T03:24:52.775Z,95477.31
2023-04-16T03:25:56.052Z,95464.88
2023-04-16T03:26:59.075Z,95474.59
2023-04-16T03:28:01.093Z,95480.03
2023-04-16T03:29:04.145Z,95471.09
2023-04-16T03:30:08.795Z,95481.25
2023-04-16T03:31:12.394Z,95476.97
2023-04-16T03:32:14.659Z,95475.78
2023-04-16T03:33:17.505Z,95469.97
2023-04-16T03:34:19.456Z,95479.34
2023-04-16T03:35:22.759Z,95473.91
2023-04-16T03:36:27.076Z,95473.91
2023-04-16T03:37:29.067Z,95478.16
2023-04-16T03:38:31.860Z,95476.63
2023-04-16T03:39:34.562Z,95471.19
2023-04-16T03:40:37.489Z,95469.63
2023-04-16T03:41:40.733Z,95467.66
2023-04-16T03:42:43.615Z,95478.56
2023-04-16T03:43:45.817Z,95473.91
2023-04-16T03:44:48.740Z,95477.78
2023-04-16T03:45:51.586Z,95484.00
2023-04-16T03:46:57.738Z,95472.34
2023-04-16T03:47:59.657Z,95472.34
2023-04-16T03:49:02.624Z,95475.06
2023-04-16T03:50:05.158Z,95484.00
2023-04-16T03:51:08.226Z,95479.34
2023-04-16T03:52:11.227Z,95480.88
2023-04-16T03:53:14.399Z,95480.13
2023-04-16T03:54:16.745Z,95489.06
2023-04-16T03:55:25.686Z,95484.81
2023-04-16T03:56:27.557Z,95489.06
2023-04-16T03:57:31.727Z,95493.75
2023-04-16T03:58:40.847Z,95487.53
2023-04-16T03:59:43.527Z,95489.47
2023-04-16T04:00:46.580Z,95496.47
2023-04-16T04:01:50.785Z,95490.25
2023-04-16T04:02:54.190Z,95492.97
2023-04-16T04:03:56.255Z,95490.25
2023-04-16T04:04:59.213Z,95494.50
2023-04-16T04:06:01.340Z,95490.25
2023-04-16T04:07:06.392Z,95495.69
2023-04-16T04:08:08.429Z,95494.13
2023-04-16T04:09:12.085Z,95495.69
2023-04-16T04:10:14.022Z,95491.41
2023-04-16T04:11:17.946Z,95490.66
2023-04-16T04:12:19.743Z,95493.38
2023-04-16T04:13:24.787Z,95489.88
2023-04-16T04:14:27.550Z,95494.13
2023-04-16T04:15:30.441Z,95492.63
2023-04-16T04:16:32.495Z,95493.78
2023-04-16T04:17:36.357Z,95490.28
2023-04-16T04:18:38.324Z,95498.47
2023-04-16T04:19:47.245Z,95496.50
2023-04-16T04:20:57.202Z,95493.41
2023-04-16T04:22:04.637Z,95499.66
2023-04-16T04:23:06.544Z,95498.09
2023-04-16T04:24:09.543Z,95500.84
2023-04-16T04:25:11.655Z,95498.88
2023-04-16T04:26:14.582Z,95500.06
2023-04-16T04:27:16.509Z,95500.06
2023-04-16T04:28:19.388Z,95500.84
2023-04-16T04:29:22.635Z,95504.31
2023-04-16T04:30:26.301Z,95508.25
2023-04-16T04:31:29.962Z,95500.06
2023-04-16T04:32:33.517Z,95497.34
2023-04-16T04:33:35.429Z,95502.78
2023-04-16T04:34:38.612Z,95508.25
2023-04-16T04:35:42.309Z,95509.78
2023-04-16T04:36:45.189Z,95514.44
2023-04-16T04:37:48.959Z,95507.03
2023-04-16T04:38:55.108Z,95508.25
2023-04-16T04:39:57.694Z,95508.25
2023-04-16T04:41:00.850Z,95510.97
2023-04-16T04:42:07.008Z,95516.41
2023-04-16T04:43:09.908Z,95516.41
2023-04-16T04:44:11.779Z,95514.44
2023-04-16T04:45:16.041Z,95516.00
2023-04-16T04:46:18.041Z,95519.91
2023-04-16T04:47:21.294Z,95526.13
2023-04-16T04:48:26.541Z,95520.66
2023-04-16T04:49:30.637Z,95516.00
2023-04-16T04:50:32.553Z,95515.22
2023-04-16T04:51:35.486Z,95513.28
2023-04-16T04:52:37.567Z,95516.00
2023-04-16T04:53:40.882Z,95517.94
2023-04-16T04:54:42.774Z,95517.94
2023-04-16T04:55:45.616Z,95525.34
2023-04-16T04:56:47.672Z,95520.31
2023-04-16T04:57:51.015Z,95523.38
2023-04-16T04:58:52.972Z,95522.63
2023-04-16T04:59:56.509Z,95519.13
2023-04-16T05:00:59.962Z,95518.38
2023-04-16T05:02:03.617Z,95518.78
2023-04-16T05:03:09.720Z,95518.00
2023-04-16T05:04:12.772Z,95520.72
2023-04-16T05:05:14.740Z,95519.97
2023-04-16T05:06:17.863Z,95522.69
2023-04-16T05:07:19.750Z,95521.91
2023-04-16T05:08:22.631Z,95523.09
2023-04-16T05:09:24.541Z,95524.63
2023-04-16T05:10:27.936Z,95534.38
2023-04-16T05:11:29.981Z,95535.13
2023-04-16T05:12:32.854Z,95533.59
2023-04-16T05:13:34.782Z,95528.16
2023-04-16T05:14:37.711Z,95535.13
2023-04-16T05:15:39.637Z,95539.81
2023-04-16T05:16:43.900Z,95536.31
2023-04-16T05:17:46.453Z,95537.84
2023-04-16T05:18:50.381Z,95539.81
2023-04-16T05:19:52.578Z,95536.31
2023-04-16T05:20:55.951Z,95538.63
2023-04-16T05:21:57.889Z,95544.50
2023-04-16T05:23:00.868Z,95543.69
2023-04-16T05:24:03.067Z,95547.22
2023-04-16T05:25:06.727Z,95544.50
2023-04-16T05:26:08.574Z,95546.44
2023-04-16T05:27:11.424Z,95544.50
2023-04-16T05:28:13.293Z,95542.94
2023-04-16T05:29:16.069Z,95549.94
2023-04-16T05:30:18.424Z,95551.09
2023-04-16T05:31:21.472Z,95545.66
2023-04-16T05:32:25.828Z,95551.09
2023-04-16T05:33:28.738Z,95551.09
2023-04-16T05:34:30.847Z,95551.09
2023-04-16T05:35:34.439Z,95557.75
2023-04-16T05:36:36.270Z,95544.91
2023-04-16T05:37:39.123Z,95549.94
2023-04-16T05:38:41.034Z,95553.44
2023-04-16T05:39:43.796Z,95545.66
2023-04-16T05:40:45.835Z,95555.03
2023-04-16T05:41:48.785Z,95554.59
2023-04-16T05:42:50.866Z,95559.28
2023-04-16T05:43:53.752Z,95556.56
2023-04-16T05:44:55.657Z,95551.09
2023-04-16T05:45:58.571Z,95561.25
2023-04-16T05:47:00.493Z,95563.56
2023-04-16T05:48:04.797Z,95562.00
2023-04-16T05:49:06.691Z,95564.34
2023-04-16T05:50:10.343Z,95563.56
2023-04-16T05:51:12.327Z,95567.47
2023-04-16T05:52:15.407Z,95564.72
2023-04-16T05:53:19.008Z,95562.00
2023-04-16T05:54:21.928Z,95567.47
2023-04-16T05:55:23.739Z,95563.56
2023-04-16T05:56:27.065Z,95565.00
2023-04-16T05:57:29.641Z,95561.09
2023-04-16T05:58:32.517Z,95561.09
2023-04-16T05:59:34.494Z,95561.44
2023-04-16T06:00:37.442Z,95563.00
2023-04-16T06:01:39.322Z,95565.72
2023-04-16T06:02:42.510Z,95561.81
2023-04-16T06:03:46.135Z,95566.50
2023-04-16T06:04:49.884Z,95564.13
2023-04-16T06:05:51.819Z,95565.31
2023-04-16T06:06:54.679Z,95562.16
2023-04-16T06:07:56.573Z,95564.88
2023-04-16T06:08:59.414Z,95565.31
2023-04-16T06:10:01.377Z,95569.56
2023-04-16T06:11:04.733Z,95572.69
2023-04-16T06:12:08.566Z,95569.56
2023-04-16T06:13:10.725Z,95569.56
2023-04-16T06:14:13.518Z,95570.34
2023-04-16T06:15:15.373Z,95569.56
2023-04-16T06:16:18.235Z,95578.53
2023-04-16T06:17:20.127Z,95568.81
2023-04-16T06:18:22.966Z,95562.59
2023-04-16T06:19:26.211Z,95573.50
2023-04-16T06:20:29.301Z,95568.81
2023-04-16T06:21:33.659Z,95569.56
2023-04-16T06:22:35.847Z,95561.41
2023-04-16T06:23:38.728Z,95563.38
2023-04-16T06:24:40.598Z,95571.09
2023-04-16T06:25:43.610Z,95566.47
2023-04-16T06:26:45.677Z,95579.69
2023-04-16T06:27:48.585Z,95568.00
2023-04-16T06:28:50.431Z,95573.47
2023-04-16T06:29:53.544Z,95573.47
2023-04-16T06:30:56.589Z,95583.19
2023-04-16T06:31:58.460Z,95576.56
2023-04-16T06:33:01.550Z,95578.91
2023-04-16T06:34:03.485Z,95575.03
2023-04-16T06:35:08.741Z,95578.91
2023-04-16T06:36:11.618Z,95575.03
2023-04-16T06:37:14.606Z,95580.47
2023-04-16T06:38:16.489Z,95575.03
2023-04-16T06:39:21.734Z,95581.22
2023-04-16T06:40:23.750Z,95580.47
2023-04-16T06:41:27.142Z,95589.41
2023-04-16T06:42:28.972Z,95586.69
2023-04-16T06:43:33.439Z,95587.13
2023-04-16T06:44:36.120Z,95590.63
2023-04-16T06:45:38.955Z,95587.53
2023-04-16T06:46:40.950Z,95589.47
2023-04-16T06:47:43.909Z,95585.97
2023-04-16T06:48:45.980Z,95589.47
2023-04-16T06:49:48.825Z,95589.06
2023-04-16T06:50:52.095Z,95588.66
2023-04-16T06:51:55.037Z,95579.72
2023-04-16T06:52:57.313Z,95591.00
2023-04-16T06:54:00.172Z,95582.00
2023-04-16T06:55:02.156Z,95586.69
2023-04-16T06:56:05.557Z,95592.53
2023-04-16T06:57:07.373Z,95589.81
2023-04-16T06:58:10.212Z,95596.81
2023-04-16T06:59:12.111Z,95598.34
2023-04-16T07:00:15.205Z,95598.34
2023-04-16T07:01:17.166Z,95598.34
2023-04-16T07:02:20.496Z,95594.44
2023-04-16T07:03:22.558Z,95597.16
2023-04-16T07:04:25.647Z,95601.44
2023-04-16T07:05:27.498Z,95600.25
2023-04-16T07:06:31.856Z,95599.84
2023-04-16T07:07:33.754Z,95599.09
2023-04-16T07:08:36.568Z,95589.72
2023-04-16T07:09:38.422Z,95600.63
2023-04-16T07:10:41.263Z,95602.94
2023-04-16T07:11:44.231Z,95598.25
2023-04-16T07:12:47.058Z,95605.25
2023-04-16T07:13:49.097Z,95598.63
2023-04-16T07:14:52.155Z,95607.56
2023-04-16T07:15:54.091Z,95598.97
2023-04-16T07:16:56.944Z,95604.44
2023-04-16T07:17:59.062Z,95595.06
2023-04-16T07:19:01.906Z,95602.06
2023-04-16T07:20:05.621Z,95601.63
2023-04-16T07:21:07.520Z,95601.63
2023-04-16T07:22:11.698Z,95603.19
2023-04-16T07:23:13.640Z,95598.50
2023-04-16T07:24:16.613Z,95607.81
2023-04-16T07:25:21.083Z,95598.50
2023-04-16T07:26:23.991Z,95602.00
2023-04-16T07:27:25.867Z,95600.41
2023-04-16T07:28:28.730Z,95602.00
2023-04-16T07:29:30.613Z,95595.78
2023-04-16T07:30:34.649Z,95597.66
2023-04-16T07:31:36.678Z,95596.50
2023-04-16T07:32:39.628Z,95605.03
2023-04-16T07:33:41.511Z,95605.81
2023-04-16T07:34:44.383Z,95598.81
2023-04-16T07:35:46.187Z,95604.28
2023-04-16T07:36:49.025Z,95603.09
2023-04-16T07:37:52.629Z,95605.03
2023-04-16T07:38:55.444Z,95605.81
2023-04-16T07:39:57.729Z,95612.78
2023-04-16T07:41:00.712Z,95606.56
2023-04-16T07:42:03.756Z,95606.94
2023-04-16T07:43:06.604Z,95604.97
2023-04-16T07:44:09.752Z,95612.00
2023-04-16T07:45:12.978Z,95608.50
2023-04-16T07:46:14.907Z,95610.38
2023-04-16T07:47:17.838Z,95603.38
2023-04-16T07:48:19.803Z,95604.94
2023-04-16T07:49:22.736Z,95611.16
2023-04-16T07:50:26.106Z,95608.03
2023-04-16T07:51:27.992Z,95605.31
2023-04-16T07:52:30.809Z,95608.38
2023-04-16T07:53:34.045Z,95610.69
2023-04-16T07:54:36.881Z,95610.28
2023-04-16T07:55:38.858Z,95619.59
2023-04-16T07:56:41.925Z,95616.47
2023-04-16T07:57:43.737Z,95615.25
2023-04-16T07:58:46.578Z,95617.59
2023-04-16T07:59:48.476Z,95621.06
2023-04-16T08:00:52.257Z,95622.69
2023-04-16T08:01:54.408Z,95621.91
2023-04-16T08:02:57.550Z,95621.16
2023-04-16T08:04:00.682Z,95617.63
2023-04-16T08:05:02.830Z,95621.16
2023-04-16T08:06:05.890Z,95625.81
2023-04-16T08:07:07.756Z,95622.69
2023-04-16T08:08:10.814Z,95628.13
2023-04-16T08:09:14.033Z,95623.44
2023-04-16T08:10:17.022Z,95630.47
2023-04-16T08:11:18.866Z,95625.00
2023-04-16T08:12:22.466Z,95630.81
2023-04-16T08:13:24.387Z,95636.28
2023-04-16T08:14:27.383Z,95633.13
2023-04-16T08:15:29.382Z,95640.53
2023-04-16T08:16:32.341Z,95635.06
2023-04-16T08:17:35.498Z,95637.41
2023-04-16T08:18:37.451Z,95628.78
2023-04-16T08:19:40.379Z,95638.94
2023-04-16T08:20:43.639Z,95645.94
2023-04-16T08:21:45.672Z,95639.69
2023-04-16T08:22:49.394Z,95642.78
2023-04-16T08:23:51.372Z,95644.75
2023-04-16T08:24:55.698Z,95643.97
2023-04-16T08:25:57.612Z,95642.78
2023-04-16T08:27:08.137Z,95648.25
2023-04-16T08:28:20.540Z,95652.53
2023-04-16T08:29:25.013Z,95649.38
2023-04-16T08:30:28.651Z,95655.63
2023-04-16T08:31:30.737Z,95648.19
2023-04-16T08:32:33.858Z,95654.41
2023-04-16T08:33:35.759Z,95654.41
2023-04-16T08:34:38.755Z,95650.50
2023-04-16T08:35:40.895Z,95646.25
2023-04-16T08:36:43.854Z,95649.31
2023-04-16T08:37:46.038Z,95652.81
2023-04-16T08:38:48.893Z,95651.66
2023-04-16T08:39:51.740Z,95651.22
2023-04-16T08:40:56.756Z,95655.16
2023-04-16T08:41:59.620Z,95659.84
2023-04-16T08:43:06.710Z,95654.38
2023-04-16T08:44:09.612Z,95647.38
2023-04-16T08:45:16.525Z,95659.03
2023-04-16T08:46:22.812Z,95660.59
2023-04-16T08:47:28.749Z,95656.69
2023-04-16T08:48:33.603Z,95662.91
2023-04-16T08:49:44.382Z,95658.25
2023-04-16T08:50:48.890Z,95663.25
2023-04-16T08:51:53.540Z,95652.72
2023-04-16T08:53:00.527Z,95655.03
2023-04-16T08:54:05.057Z,95660.84
2023-04-16T08:55:13.212Z,95659.66
2023-04-16T08:56:21.367Z,95659.25
2023-04-16T08:57:27.024Z,95651.81
2023-04-16T08:58:34.983Z,95661.56
2023-04-16T08:59:38.232Z,95658.06
2023-04-16T09:00:42.135Z,95654.91
2023-04-16T09:01:46.935Z,95657.69
2023-04-16T09:02:50.312Z,95659.03
2023-04-16T09:03:54.332Z,95659.88
2023-04-16T09:04:58.577Z,95655.25
2023-04-16T09:06:03.436Z,95669.25
2023-04-16T09:07:08.614Z,95665.34
2023-04-16T09:08:11.557Z,95661.41
2023-04-16T09:09:14.843Z,95666.09
2023-04-16T09:10:18.486Z,95659.84
2023-04-16T09:11:22.786Z,95659.41
2023-04-16T09:12:25.424Z,95660.97
2023-04-16T09:13:28.542Z,95655.88
2023-04-16T09:14:31.008Z,95665.59
2023-04-16T09:15:36.690Z,95669.06
2023-04-16T09:16:39.901Z,95666.72
2023-04-16T09:17:42.889Z,95662.03
2023-04-16T09:18:47.736Z,95670.22
2023-04-16T09:19:50.591Z,95662.81
2023-04-16T09:20:53.474Z,95668.28
2023-04-16T09:22:02.560Z,95672.94
2023-04-16T09:23:05.870Z,95666.31
2023-04-16T09:24:08.785Z,95674.50
2023-04-16T09:25:12.120Z,95674.50
2023-04-16T09:26:14.076Z,95671.00
2023-04-16T09:27:18.321Z,95671.75
2023-04-16T09:28:42.696Z,95673.28
2023-04-16T09:29:45.588Z,95665.88
2023-04-16T09:30:47.471Z,95676.03
2023-04-16T09:32:03.277Z,95673.66
2023-04-16T09:33:16.638Z,95670.94
2023-04-16T09:34:19.564Z,95674.38
2023-04-16T09:35:21.774Z,95670.44
2023-04-16T09:36:24.684Z,95666.19
2023-04-16T09:37:29.519Z,95669.28
2023-04-16T09:38:47.972Z,95670.78
2023-04-16T09:39:55.552Z,95672.63
2023-04-16T09:41:07.227Z,95671.78
2023-04-16T09:42:10.364Z,95671.41
2023-04-16T09:43:14.770Z,95665.97
2023-04-16T09:44:17.646Z,95669.03
2023-04-16T09:45:20.302Z,95667.88
2023-04-16T09:46:23.383Z,95673.34
2023-04-16T09:47:27.768Z,95672.53
2023-04-16T09:48:30.882Z,95678.78
2023-04-16T09:49:36.767Z,95680.31
2023-04-16T09:50:38.800Z,95674.09
2023-04-16T09:51:43.279Z,95679.13
2023-04-16T09:52:48.897Z,95680.69
2023-04-16T09:53:53.543Z,95679.97
2023-04-16T09:54:55.453Z,95671.78
2023-04-16T09:55:58.863Z,95681.16
2023-04-16T09:57:01.535Z,95686.63
2023-04-16T09:58:04.444Z,95682.34
2023-04-16T09:59:08.859Z,95682.34
2023-04-16T10:00:13.006Z,95672.63
2023-04-16T10:01:16.740Z,95682.34
2023-04-16T10:02:20.124Z,95684.69
2023-04-16T10:03:31.654Z,95679.59
2023-04-16T10:04:46.934Z,95678.06
2023-04-16T10:05:48.844Z,95682.34
2023-04-16T10:07:04.961Z,95691.28
2023-04-16T10:08:13.172Z,95681.16
2023-04-16T10:09:16.166Z,95688.16
2023-04-16T10:10:18.307Z,95681.84
2023-04-16T10:11:22.137Z,95682.66
2023-04-16T10:12:24.013Z,95686.16
2023-04-16T10:13:27.884Z,95684.94
2023-04-16T10:14:32.330Z,95684.50
2023-04-16T10:15:35.641Z,95682.44
2023-04-16T10:16:40.087Z,95685.53
2023-04-16T10:17:44.044Z,95690.19
2023-04-16T10:18:46.883Z,95693.25
2023-04-16T10:19:50.748Z,95694.03
2023-04-16T10:20:52.966Z,95689.34
2023-04-16T10:21:56.758Z,95689.72
2023-04-16T10:23:00.381Z,95693.19
2023-04-16T10:24:03.216Z,95694.72
2023-04-16T10:25:07.885Z,95697.06
2023-04-16T10:26:09.841Z,95695.88
2023-04-16T10:27:12.670Z,95690.44
2023-04-16T10:28:15.549Z,95693.16
2023-04-16T10:29:18.768Z,95696.66
2023-04-16T10:30:22.813Z,95693.91
2023-04-16T10:31:26.925Z,95698.63
2023-04-16T10:32:31.438Z,95693.16
2023-04-16T10:33:36.438Z,95698.63
2023-04-16T10:34:39.129Z,95693.16
2023-04-16T10:35:42.067Z,95693.16
2023-04-16T10:36:50.188Z,95698.63
2023-04-16T10:37:56.896Z,95693.56
2023-04-16T10:39:01.832Z,95694.31
2023-04-16T10:40:22.519Z,95691.59
2023-04-16T10:41:27.641Z,95697.06
2023-04-16T10:42:29.624Z,95696.28
2023-04-16T10:43:34.983Z,95695.53
2023-04-16T10:44:38.062Z,95695.16
2023-04-16T10:45:41.485Z,95694.31
2023-04-16T10:46:46.157Z,95688.88
2023-04-16T10:47:48.149Z,95691.59
2023-04-16T10:48:54.058Z,95696.28
2023-04-16T10:49:57.229Z,95690.84
2023-04-16T10:51:00.150Z,95686.13
2023-04-16T10:52:10.521Z,95695.09
2023-04-16T10:53:20.309Z,95698.63
2023-04-16T10:54:26.855Z,95695.88
2023-04-16T10:55:29.724Z,95695.88
2023-04-16T10:56:35.048Z,95700.16
2023-04-16T10:57:37.975Z,95694.28
2023-04-16T10:58:40.091Z,95687.63
2023-04-16T10:59:44.395Z,95684.47
2023-04-16T11:00:51.868Z,95693.06
2023-04-16T11:01:57.432Z,95689.94
2023-04-16T11:02:59.699Z,95689.94
2023-04-16T11:04:23.258Z,95688.38
2023-04-16T11:05:46.732Z,95688.03
2023-04-16T11:07:02.879Z,95691.94
2023-04-16T11:08:15.988Z,95694.69
2023-04-16T11:09:53.497Z,95693.16
2023-04-16T11:10:58.660Z,95698.19
2023-04-16T11:12:03.010Z,95693.91
2023-04-16T11:13:07.650Z,95697.41
2023-04-16T11:14:11.705Z,95701.34
2023-04-16T11:15:16.209Z,95695.09
2023-04-16T11:16:19.472Z,95693.16
2023-04-16T11:17:23.316Z,95697.41
2023-04-16T11:18:26.494Z,95698.63
2023-04-16T11:19:29.584Z,95700.16
2023-04-16T11:20:31.717Z,95700.50
2023-04-16T11:21:35.310Z,95693.06
2023-04-16T11:22:37.391Z,95695.41
2023-04-16T11:23:51.030Z,95700.88
2023-04-16T11:24:56.005Z,95699.66
2023-04-16T11:25:58.599Z,95694.63
2023-04-16T11:27:01.601Z,95693.44
2023-04-16T11:28:03.420Z,95687.97
2023-04-16T11:29:14.979Z,95699.66
2023-04-16T11:30:17.239Z,95698.50
2023-04-16T11:31:21.549Z,95701.22
2023-04-16T11:32:23.880Z,95700.03
2023-04-16T11:33:27.092Z,95697.69
2023-04-16T11:34:29.209Z,95698.50
2023-04-16T11:35:32.276Z,95699.25
2023-04-16T11:36:43.393Z,95696.94
2023-04-16T11:37:48.294Z,95697.69
2023-04-16T11:38:50.271Z,95693.03
2023-04-16T11:39:53.898Z,95703.94
2023-04-16T11:40:55.904Z,95707.09
2023-04-16T11:41:58.844Z,95699.66
2023-04-16T11:43:02.914Z,95703.94
2023-04-16T11:44:18.388Z,95702.41
2023-04-16T11:45:21.965Z,95706.69
2023-04-16T11:46:38.482Z,95703.16
2023-04-16T11:47:46.529Z,95708.69
2023-04-16T11:48:52.927Z,95709.47
2023-04-16T11:49:55.783Z,95701.28
2023-04-16T11:50:58.229Z,95704.00
2023-04-16T11:52:01.517Z,95708.28
2023-04-16T11:53:05.441Z,95718.84
2023-04-16T11:54:11.696Z,95708.69
2023-04-16T11:55:14.560Z,95707.13
2023-04-16T11:56:25.703Z,95705.97
2023-04-16T11:57:29.764Z,95710.22
2023-04-16T11:58:31.674Z,95707.09
2023-04-16T11:59:36.929Z,95717.25
2023-04-16T12:00:38.850Z,95714.09
2023-04-16T12:01:46.842Z,95710.59
2023-04-16T12:02:51.411Z,95713.69
2023-04-16T12:04:03.190Z,95716.41
2023-04-16T12:05:06.736Z,95716.41
2023-04-16T12:06:10.287Z,95713.28
2023-04-16T12:07:13.658Z,95714.03
2023-04-16T12:08:30.290Z,95714.03
2023-04-16T12:09:32.653Z,95719.13
2023-04-16T12:10:37.789Z,95717.13
2023-04-16T12:11:40.760Z,95714.81
2023-04-16T12:12:43.968Z,95718.66
2023-04-16T12:14:11.270Z,95716.97
2023-04-16T12:15:14.170Z,95713.31
2023-04-16T12:16:20.658Z,95711.72
2023-04-16T12:17:25.226Z,95707.00
2023-04-16T12:18:28.328Z,95711.31
2023-04-16T12:19:30.216Z,95710.91
2023-04-16T12:20:40.733Z,95714.09
2023-04-16T12:21:44.816Z,95713.53
2023-04-16T12:22:49.494Z,95718.06
2023-04-16T12:23:55.028Z,95719.34
2023-04-16T12:25:01.571Z,95718.06
2023-04-16T12:26:10.635Z,95720.22
2023-04-16T12:27:13.058Z,95718.16
2023-04-16T12:28:16.541Z,95727.38
2023-04-16T12:29:20.478Z,95719.06